sensor_id;sensor_type;location;lat;lon;timestamp;temperature;humidity
71128;SHT30;59249;59.736;30.568;2022-12-29T00:00:33;0.89;85.30
71128;SHT30;59249;59.736;30.568;2022-12-29T00:03:02;0.95;85.13
71128;SHT30;59249;59.736;30.568;2022-12-29T00:05:31;0.99;84.59
71128;SHT30;59249;59.736;30.568;2022-12-29T00:08:01;1.07;84.87
71128;SHT30;59249;59.736;30.568;2022-12-29T00:10:29;1.05;85.54
71128;SHT30;59249;59.736;30.568;2022-12-29T00:12:58;1.11;84.86
71128;SHT30;59249;59.736;30.568;2022-12-29T00:15:44;1.11;85.02
71128;SHT30;59249;59.736;30.568;2022-12-29T00:18:13;1.03;84.79
71128;SHT30;59249;59.736;30.568;2022-12-29T00:20:44;1.09;84.50
71128;SHT30;59249;59.736;30.568;2022-12-29T00:23:31;1.07;83.77
71128;SHT30;59249;59.736;30.568;2022-12-29T00:26:17;1.04;83.63
71128;SHT30;59249;59.736;30.568;2022-12-29T00:35:08;1.10;85.03
71128;SHT30;59249;59.736;30.568;2022-12-29T00:37:43;1.09;84.97
71128;SHT30;59249;59.736;30.568;2022-12-29T00:40:31;0.99;83.00
71128;SHT30;59249;59.736;30.568;2022-12-29T00:43:17;1.01;82.83
71128;SHT30;59249;59.736;30.568;2022-12-29T00:46:03;0.98;82.70
71128;SHT30;59249;59.736;30.568;2022-12-29T00:48:31;0.97;83.17
71128;SHT30;59249;59.736;30.568;2022-12-29T00:51:17;1.04;83.26
71128;SHT30;59249;59.736;30.568;2022-12-29T00:53:46;0.97;83.81
71128;SHT30;59249;59.736;30.568;2022-12-29T00:56:16;0.88;84.08
71128;SHT30;59249;59.736;30.568;2022-12-29T00:58:45;1.03;84.08
71128;SHT30;59249;59.736;30.568;2022-12-29T01:01:14;0.96;83.27
71128;SHT30;59249;59.736;30.568;2022-12-29T01:03:44;1.04;83.69
71128;SHT30;59249;59.736;30.568;2022-12-29T01:06:14;0.98;84.14
71128;SHT30;59249;59.736;30.568;2022-12-29T01:08:44;1.01;85.03
71128;SHT30;59249;59.736;30.568;2022-12-29T01:11:13;1.04;85.47
71128;SHT30;59249;59.736;30.568;2022-12-29T01:13:44;0.99;85.51
71128;SHT30;59249;59.736;30.568;2022-12-29T01:16:13;1.04;85.27
71128;SHT30;59249;59.736;30.568;2022-12-29T01:18:44;1.02;84.95
71128;SHT30;59249;59.736;30.568;2022-12-29T01:21:13;0.95;85.24
71128;SHT30;59249;59.736;30.568;2022-12-29T01:23:42;0.99;83.40
71128;SHT30;59249;59.736;30.568;2022-12-29T01:26:13;1.04;83.86
71128;SHT30;59249;59.736;30.568;2022-12-29T01:28:44;1.01;84.42
71128;SHT30;59249;59.736;30.568;2022-12-29T01:31:15;1.05;84.69
71128;SHT30;59249;59.736;30.568;2022-12-29T01:33:44;1.04;85.01
71128;SHT30;59249;59.736;30.568;2022-12-29T01:36:15;1.05;84.43
71128;SHT30;59249;59.736;30.568;2022-12-29T01:38:44;1.01;84.03
71128;SHT30;59249;59.736;30.568;2022-12-29T01:41:15;1.01;82.91
71128;SHT30;59249;59.736;30.568;2022-12-29T01:43:48;1.01;84.08
71128;SHT30;59249;59.736;30.568;2022-12-29T01:46:25;1.02;83.52
71128;SHT30;59249;59.736;30.568;2022-12-29T01:49:03;0.98;83.24
71128;SHT30;59249;59.736;30.568;2022-12-29T01:51:35;0.98;82.95
71128;SHT30;59249;59.736;30.568;2022-12-29T01:54:13;0.99;83.03
71128;SHT30;59249;59.736;30.568;2022-12-29T01:56:43;0.94;82.24
71128;SHT30;59249;59.736;30.568;2022-12-29T01:59:19;1.06;82.94
71128;SHT30;59249;59.736;30.568;2022-12-29T02:01:50;0.97;83.08
71128;SHT30;59249;59.736;30.568;2022-12-29T02:04:19;0.99;83.27
71128;SHT30;59249;59.736;30.568;2022-12-29T02:06:53;0.97;83.27
71128;SHT30;59249;59.736;30.568;2022-12-29T02:09:27;1.02;83.66
71128;SHT30;59249;59.736;30.568;2022-12-29T02:11:58;0.99;83.63
71128;SHT30;59249;59.736;30.568;2022-12-29T02:14:29;1.00;83.35
71128;SHT30;59249;59.736;30.568;2022-12-29T02:17:09;1.07;83.87
71128;SHT30;59249;59.736;30.568;2022-12-29T02:20:26;0.95;84.35
71128;SHT30;59249;59.736;30.568;2022-12-29T02:23:31;0.92;81.49
71128;SHT30;59249;59.736;30.568;2022-12-29T02:26:29;0.94;81.91
71128;SHT30;59249;59.736;30.568;2022-12-29T02:29:36;0.99;83.18
71128;SHT30;59249;59.736;30.568;2022-12-29T02:32:19;1.01;82.60
71128;SHT30;59249;59.736;30.568;2022-12-29T02:35:03;1.00;82.48
71128;SHT30;59249;59.736;30.568;2022-12-29T02:37:56;0.85;82.72
71128;SHT30;59249;59.736;30.568;2022-12-29T02:40:37;0.86;83.40
71128;SHT30;59249;59.736;30.568;2022-12-29T02:43:21;0.81;82.81
71128;SHT30;59249;59.736;30.568;2022-12-29T02:45:56;0.97;82.47
71128;SHT30;59249;59.736;30.568;2022-12-29T02:48:34;0.95;82.79
71128;SHT30;59249;59.736;30.568;2022-12-29T02:51:12;1.01;83.03
71128;SHT30;59249;59.736;30.568;2022-12-29T02:53:45;0.98;82.33
71128;SHT30;59249;59.736;30.568;2022-12-29T02:56:32;0.97;82.19
71128;SHT30;59249;59.736;30.568;2022-12-29T02:59:02;0.95;81.54
71128;SHT30;59249;59.736;30.568;2022-12-29T03:02:01;0.89;82.21
71128;SHT30;59249;59.736;30.568;2022-12-29T03:05:09;0.95;82.45
71128;SHT30;59249;59.736;30.568;2022-12-29T03:07:52;0.95;82.71
71128;SHT30;59249;59.736;30.568;2022-12-29T03:10:38;0.91;83.16
71128;SHT30;59249;59.736;30.568;2022-12-29T03:13:23;0.97;83.52
71128;SHT30;59249;59.736;30.568;2022-12-29T03:16:23;0.90;83.58
71128;SHT30;59249;59.736;30.568;2022-12-29T03:19:00;0.96;83.63
71128;SHT30;59249;59.736;30.568;2022-12-29T03:21:39;0.88;83.34
71128;SHT30;59249;59.736;30.568;2022-12-29T03:24:32;1.01;83.89
71128;SHT30;59249;59.736;30.568;2022-12-29T03:27:06;0.85;83.31
71128;SHT30;59249;59.736;30.568;2022-12-29T03:29:46;0.90;83.41
71128;SHT30;59249;59.736;30.568;2022-12-29T03:32:22;0.87;82.99
71128;SHT30;59249;59.736;30.568;2022-12-29T03:34:54;0.86;83.17
71128;SHT30;59249;59.736;30.568;2022-12-29T03:37:31;0.86;83.98
71128;SHT30;59249;59.736;30.568;2022-12-29T03:40:02;0.88;84.45
71128;SHT30;59249;59.736;30.568;2022-12-29T03:42:34;0.82;84.10
71128;SHT30;59249;59.736;30.568;2022-12-29T03:45:10;0.82;83.50
71128;SHT30;59249;59.736;30.568;2022-12-29T03:47:39;0.77;83.65
71128;SHT30;59249;59.736;30.568;2022-12-29T03:50:08;0.73;83.76
71128;SHT30;59249;59.736;30.568;2022-12-29T03:52:41;0.66;83.34
71128;SHT30;59249;59.736;30.568;2022-12-29T03:55:10;0.64;83.39
71128;SHT30;59249;59.736;30.568;2022-12-29T03:57:39;0.65;83.23
71128;SHT30;59249;59.736;30.568;2022-12-29T04:00:14;0.69;83.22
71128;SHT30;59249;59.736;30.568;2022-12-29T04:02:48;0.62;83.84
71128;SHT30;59249;59.736;30.568;2022-12-29T04:05:20;0.73;84.06
71128;SHT30;59249;59.736;30.568;2022-12-29T04:07:54;0.66;84.14
71128;SHT30;59249;59.736;30.568;2022-12-29T04:10:23;0.69;84.26
71128;SHT30;59249;59.736;30.568;2022-12-29T04:12:58;0.64;83.49
71128;SHT30;59249;59.736;30.568;2022-12-29T04:15:33;0.59;84.05
71128;SHT30;59249;59.736;30.568;2022-12-29T04:18:02;0.67;83.53
71128;SHT30;59249;59.736;30.568;2022-12-29T04:20:33;0.65;82.97
71128;SHT30;59249;59.736;30.568;2022-12-29T04:23:22;0.57;82.81
71128;SHT30;59249;59.736;30.568;2022-12-29T04:25:52;0.58;83.21
71128;SHT30;59249;59.736;30.568;2022-12-29T04:28:23;0.59;82.72
71128;SHT30;59249;59.736;30.568;2022-12-29T04:31:00;0.59;83.45
71128;SHT30;59249;59.736;30.568;2022-12-29T04:33:34;0.58;82.44
71128;SHT30;59249;59.736;30.568;2022-12-29T04:36:04;0.63;82.83
71128;SHT30;59249;59.736;30.568;2022-12-29T04:38:36;0.59;83.13
71128;SHT30;59249;59.736;30.568;2022-12-29T04:41:06;0.54;83.42
71128;SHT30;59249;59.736;30.568;2022-12-29T04:43:37;0.60;83.47
71128;SHT30;59249;59.736;30.568;2022-12-29T04:46:11;0.60;83.40
71128;SHT30;59249;59.736;30.568;2022-12-29T04:48:54;0.54;83.86
71128;SHT30;59249;59.736;30.568;2022-12-29T04:51:29;0.61;84.11
71128;SHT30;59249;59.736;30.568;2022-12-29T04:53:59;0.62;84.03
71128;SHT30;59249;59.736;30.568;2022-12-29T04:56:28;0.58;83.64
71128;SHT30;59249;59.736;30.568;2022-12-29T04:58:58;0.53;83.74
71128;SHT30;59249;59.736;30.568;2022-12-29T05:01:27;0.64;83.74
71128;SHT30;59249;59.736;30.568;2022-12-29T05:03:57;0.54;83.68
71128;SHT30;59249;59.736;30.568;2022-12-29T05:06:27;0.41;82.54
71128;SHT30;59249;59.736;30.568;2022-12-29T05:08:56;0.40;83.38
71128;SHT30;59249;59.736;30.568;2022-12-29T05:11:26;0.26;83.99
71128;SHT30;59249;59.736;30.568;2022-12-29T05:13:56;0.33;83.97
71128;SHT30;59249;59.736;30.568;2022-12-29T05:16:25;0.24;83.19
71128;SHT30;59249;59.736;30.568;2022-12-29T05:18:54;0.19;83.29
71128;SHT30;59249;59.736;30.568;2022-12-29T05:21:23;0.28;83.64
71128;SHT30;59249;59.736;30.568;2022-12-29T05:23:52;0.26;83.05
71128;SHT30;59249;59.736;30.568;2022-12-29T05:26:21;0.18;84.08
71128;SHT30;59249;59.736;30.568;2022-12-29T05:29:03;0.19;84.02
71128;SHT30;59249;59.736;30.568;2022-12-29T05:31:32;0.12;83.91
71128;SHT30;59249;59.736;30.568;2022-12-29T05:34:04;0.18;83.87
71128;SHT30;59249;59.736;30.568;2022-12-29T05:36:33;0.13;84.12
71128;SHT30;59249;59.736;30.568;2022-12-29T05:39:06;0.20;84.46
71128;SHT30;59249;59.736;30.568;2022-12-29T05:41:37;0.06;84.94
71128;SHT30;59249;59.736;30.568;2022-12-29T05:44:27;0.09;85.18
71128;SHT30;59249;59.736;30.568;2022-12-29T05:47:11;0.11;85.10
71128;SHT30;59249;59.736;30.568;2022-12-29T05:50:16;0.09;85.05
71128;SHT30;59249;59.736;30.568;2022-12-29T05:53:05;0.10;85.04
71128;SHT30;59249;59.736;30.568;2022-12-29T05:55:36;0.07;84.87
71128;SHT30;59249;59.736;30.568;2022-12-29T05:58:13;0.06;84.95
71128;SHT30;59249;59.736;30.568;2022-12-29T06:00:45;0.05;85.62
71128;SHT30;59249;59.736;30.568;2022-12-29T06:03:14;0.02;85.78
71128;SHT30;59249;59.736;30.568;2022-12-29T06:05:44;0.06;85.29
71128;SHT30;59249;59.736;30.568;2022-12-29T06:08:15;0.11;85.67
71128;SHT30;59249;59.736;30.568;2022-12-29T06:10:45;0.13;85.83
71128;SHT30;59249;59.736;30.568;2022-12-29T06:13:26;0.13;85.53
71128;SHT30;59249;59.736;30.568;2022-12-29T06:16:00;-0.03;85.48
71128;SHT30;59249;59.736;30.568;2022-12-29T06:18:30;-0.11;85.98
71128;SHT30;59249;59.736;30.568;2022-12-29T06:21:01;-0.12;86.04
71128;SHT30;59249;59.736;30.568;2022-12-29T06:23:30;-0.15;85.96
71128;SHT30;59249;59.736;30.568;2022-12-29T06:25:59;-0.16;86.01
71128;SHT30;59249;59.736;30.568;2022-12-29T06:28:27;-0.12;86.50
71128;SHT30;59249;59.736;30.568;2022-12-29T06:30:58;-0.17;86.56
71128;SHT30;59249;59.736;30.568;2022-12-29T06:33:29;-0.13;86.54
71128;SHT30;59249;59.736;30.568;2022-12-29T06:35:58;-0.25;86.68
71128;SHT30;59249;59.736;30.568;2022-12-29T06:38:27;-0.24;86.13
71128;SHT30;59249;59.736;30.568;2022-12-29T06:40:58;-0.29;86.40
71128;SHT30;59249;59.736;30.568;2022-12-29T06:43:45;-0.36;86.82
71128;SHT30;59249;59.736;30.568;2022-12-29T06:46:50;-0.32;86.71
71128;SHT30;59249;59.736;30.568;2022-12-29T06:49:19;-0.42;86.33
71128;SHT30;59249;59.736;30.568;2022-12-29T06:51:48;-0.44;86.77
71128;SHT30;59249;59.736;30.568;2022-12-29T06:54:17;-0.50;86.66
71128;SHT30;59249;59.736;30.568;2022-12-29T06:56:46;-0.52;86.33
71128;SHT30;59249;59.736;30.568;2022-12-29T06:59:15;-0.49;86.80
71128;SHT30;59249;59.736;30.568;2022-12-29T07:01:44;-0.59;86.69
71128;SHT30;59249;59.736;30.568;2022-12-29T07:04:14;-0.59;86.87
71128;SHT30;59249;59.736;30.568;2022-12-29T07:06:43;-0.61;86.69
71128;SHT30;59249;59.736;30.568;2022-12-29T07:09:12;-0.62;86.27
71128;SHT30;59249;59.736;30.568;2022-12-29T07:11:41;-0.74;87.25
71128;SHT30;59249;59.736;30.568;2022-12-29T07:14:11;-0.72;86.64
71128;SHT30;59249;59.736;30.568;2022-12-29T07:16:40;-0.84;87.03
71128;SHT30;59249;59.736;30.568;2022-12-29T07:19:10;-0.87;87.04
71128;SHT30;59249;59.736;30.568;2022-12-29T07:21:40;-1.05;86.93
71128;SHT30;59249;59.736;30.568;2022-12-29T07:24:11;-1.10;86.75
71128;SHT30;59249;59.736;30.568;2022-12-29T07:26:40;-1.12;87.08
71128;SHT30;59249;59.736;30.568;2022-12-29T07:29:09;-1.20;87.03
71128;SHT30;59249;59.736;30.568;2022-12-29T07:31:38;-1.22;87.17
71128;SHT30;59249;59.736;30.568;2022-12-29T07:34:08;-1.24;87.16
71128;SHT30;59249;59.736;30.568;2022-12-29T07:36:38;-1.30;87.46
71128;SHT30;59249;59.736;30.568;2022-12-29T07:39:07;-1.41;87.59
71128;SHT30;59249;59.736;30.568;2022-12-29T07:41:36;-1.39;87.24
71128;SHT30;59249;59.736;30.568;2022-12-29T07:44:09;-1.39;87.29
71128;SHT30;59249;59.736;30.568;2022-12-29T07:46:56;-1.36;87.25
71128;SHT30;59249;59.736;30.568;2022-12-29T07:49:27;-1.34;87.25
71128;SHT30;59249;59.736;30.568;2022-12-29T07:51:57;-1.34;87.04
71128;SHT30;59249;59.736;30.568;2022-12-29T07:54:26;-1.37;87.13
71128;SHT30;59249;59.736;30.568;2022-12-29T07:56:55;-1.42;86.79
71128;SHT30;59249;59.736;30.568;2022-12-29T07:59:25;-1.44;86.74
71128;SHT30;59249;59.736;30.568;2022-12-29T08:01:55;-1.41;87.14
71128;SHT30;59249;59.736;30.568;2022-12-29T08:04:25;-1.35;87.02
71128;SHT30;59249;59.736;30.568;2022-12-29T08:06:54;-1.36;86.47
71128;SHT30;59249;59.736;30.568;2022-12-29T08:09:25;-1.30;86.42
71128;SHT30;59249;59.736;30.568;2022-12-29T08:11:54;-1.31;87.24
71128;SHT30;59249;59.736;30.568;2022-12-29T08:14:22;-1.31;86.69
71128;SHT30;59249;59.736;30.568;2022-12-29T08:16:51;-1.14;86.69
71128;SHT30;59249;59.736;30.568;2022-12-29T08:19:20;-1.27;86.95
71128;SHT30;59249;59.736;30.568;2022-12-29T08:21:50;-1.19;86.94
71128;SHT30;59249;59.736;30.568;2022-12-29T08:24:19;-1.21;86.69
71128;SHT30;59249;59.736;30.568;2022-12-29T08:26:49;-1.21;86.89
71128;SHT30;59249;59.736;30.568;2022-12-29T08:29:17;-1.11;87.39
71128;SHT30;59249;59.736;30.568;2022-12-29T08:31:47;-1.09;86.84
71128;SHT30;59249;59.736;30.568;2022-12-29T08:34:15;-1.15;86.88
71128;SHT30;59249;59.736;30.568;2022-12-29T08:36:44;-1.02;86.52
71128;SHT30;59249;59.736;30.568;2022-12-29T08:39:13;-0.95;86.33
71128;SHT30;59249;59.736;30.568;2022-12-29T08:41:42;-0.95;86.91
71128;SHT30;59249;59.736;30.568;2022-12-29T08:44:12;-0.99;86.57
71128;SHT30;59249;59.736;30.568;2022-12-29T08:46:41;-0.96;86.39
71128;SHT30;59249;59.736;30.568;2022-12-29T08:49:10;-0.98;86.56
71128;SHT30;59249;59.736;30.568;2022-12-29T08:51:39;-0.99;86.45
71128;SHT30;59249;59.736;30.568;2022-12-29T08:54:07;-1.06;86.41
71128;SHT30;59249;59.736;30.568;2022-12-29T08:56:36;-0.95;86.67
71128;SHT30;59249;59.736;30.568;2022-12-29T08:59:05;-1.02;86.65
71128;SHT30;59249;59.736;30.568;2022-12-29T09:01:35;-0.89;86.69
71128;SHT30;59249;59.736;30.568;2022-12-29T09:04:08;-0.89;86.83
71128;SHT30;59249;59.736;30.568;2022-12-29T09:06:44;-0.77;86.33
71128;SHT30;59249;59.736;30.568;2022-12-29T09:09:13;-1.01;86.03
71128;SHT30;59249;59.736;30.568;2022-12-29T09:11:42;-1.05;86.95
71128;SHT30;59249;59.736;30.568;2022-12-29T09:14:12;-0.96;86.85
71128;SHT30;59249;59.736;30.568;2022-12-29T09:16:42;-1.05;87.17
71128;SHT30;59249;59.736;30.568;2022-12-29T09:19:30;-0.96;86.91
71128;SHT30;59249;59.736;30.568;2022-12-29T09:21:58;-0.99;87.00
71128;SHT30;59249;59.736;30.568;2022-12-29T09:24:27;-0.92;86.83
71128;SHT30;59249;59.736;30.568;2022-12-29T09:26:56;-0.89;87.14
71128;SHT30;59249;59.736;30.568;2022-12-29T09:29:25;-0.85;87.30
71128;SHT30;59249;59.736;30.568;2022-12-29T09:31:55;-0.70;87.81
71128;SHT30;59249;59.736;30.568;2022-12-29T09:34:24;-0.72;87.43
71128;SHT30;59249;59.736;30.568;2022-12-29T09:36:52;-0.70;86.81
71128;SHT30;59249;59.736;30.568;2022-12-29T09:39:23;-0.69;87.00
71128;SHT30;59249;59.736;30.568;2022-12-29T09:42:01;-0.79;86.79
71128;SHT30;59249;59.736;30.568;2022-12-29T09:44:49;-0.76;86.94
71128;SHT30;59249;59.736;30.568;2022-12-29T09:47:23;-0.72;86.21
71128;SHT30;59249;59.736;30.568;2022-12-29T09:49:56;-0.93;86.81
71128;SHT30;59249;59.736;30.568;2022-12-29T09:52:31;-0.87;87.11
71128;SHT30;59249;59.736;30.568;2022-12-29T09:55:05;-0.85;87.21
71128;SHT30;59249;59.736;30.568;2022-12-29T09:57:46;-0.81;86.71
71128;SHT30;59249;59.736;30.568;2022-12-29T10:00:19;-0.80;87.50
71128;SHT30;59249;59.736;30.568;2022-12-29T10:02:55;-0.72;87.03
71128;SHT30;59249;59.736;30.568;2022-12-29T10:05:39;-0.76;86.52
71128;SHT30;59249;59.736;30.568;2022-12-29T10:08:32;-0.71;86.90
71128;SHT30;59249;59.736;30.568;2022-12-29T10:11:18;-0.71;87.08
71128;SHT30;59249;59.736;30.568;2022-12-29T10:14:17;-0.70;86.85
71128;SHT30;59249;59.736;30.568;2022-12-29T10:17:00;-0.69;86.33
71128;SHT30;59249;59.736;30.568;2022-12-29T10:19:53;-0.79;86.73
71128;SHT30;59249;59.736;30.568;2022-12-29T10:22:42;-0.73;86.76
71128;SHT30;59249;59.736;30.568;2022-12-29T10:25:19;-0.67;86.98
71128;SHT30;59249;59.736;30.568;2022-12-29T10:27:51;-0.61;87.08
71128;SHT30;59249;59.736;30.568;2022-12-29T10:30:22;-0.61;86.38
71128;SHT30;59249;59.736;30.568;2022-12-29T10:32:56;-0.78;86.46
71128;SHT30;59249;59.736;30.568;2022-12-29T10:35:34;-0.57;86.22
71128;SHT30;59249;59.736;30.568;2022-12-29T10:38:19;-0.67;86.40
71128;SHT30;59249;59.736;30.568;2022-12-29T10:40:56;-0.67;86.66
71128;SHT30;59249;59.736;30.568;2022-12-29T10:43:28;-0.67;86.42
71128;SHT30;59249;59.736;30.568;2022-12-29T10:46:03;-0.70;86.65
71128;SHT30;59249;59.736;30.568;2022-12-29T10:48:34;-0.66;86.32
71128;SHT30;59249;59.736;30.568;2022-12-29T10:51:07;-0.57;86.24
71128;SHT30;59249;59.736;30.568;2022-12-29T10:53:43;-0.59;86.19
71128;SHT30;59249;59.736;30.568;2022-12-29T10:56:27;-0.67;86.65
71128;SHT30;59249;59.736;30.568;2022-12-29T10:58:59;-0.57;86.29
71128;SHT30;59249;59.736;30.568;2022-12-29T11:01:44;-0.63;86.35
71128;SHT30;59249;59.736;30.568;2022-12-29T11:04:33;-0.65;86.63
71128;SHT30;59249;59.736;30.568;2022-12-29T11:07:06;-0.45;86.68
71128;SHT30;59249;59.736;30.568;2022-12-29T11:09:44;-0.65;86.64
71128;SHT30;59249;59.736;30.568;2022-12-29T11:12:20;-0.61;87.06
71128;SHT30;59249;59.736;30.568;2022-12-29T11:15:11;-0.66;86.69
71128;SHT30;59249;59.736;30.568;2022-12-29T11:17:52;-0.55;86.64
71128;SHT30;59249;59.736;30.568;2022-12-29T11:20:31;-0.74;86.43
71128;SHT30;59249;59.736;30.568;2022-12-29T11:23:05;-0.83;86.45
71128;SHT30;59249;59.736;30.568;2022-12-29T11:25:33;-0.83;86.91
71128;SHT30;59249;59.736;30.568;2022-12-29T11:28:14;-0.83;87.30
71128;SHT30;59249;59.736;30.568;2022-12-29T11:30:44;-0.72;87.34
71128;SHT30;59249;59.736;30.568;2022-12-29T11:33:12;-0.76;87.03
71128;SHT30;59249;59.736;30.568;2022-12-29T11:35:43;-0.78;86.97
71128;SHT30;59249;59.736;30.568;2022-12-29T11:38:23;-0.77;86.71
71128;SHT30;59249;59.736;30.568;2022-12-29T11:40:54;-0.73;87.28
71128;SHT30;59249;59.736;30.568;2022-12-29T11:43:31;-0.83;87.15
71128;SHT30;59249;59.736;30.568;2022-12-29T11:46:01;-0.78;87.20
71128;SHT30;59249;59.736;30.568;2022-12-29T11:48:39;-0.75;87.37
71128;SHT30;59249;59.736;30.568;2022-12-29T11:51:10;-0.73;87.53
71128;SHT30;59249;59.736;30.568;2022-12-29T11:53:46;-0.59;87.54
71128;SHT30;59249;59.736;30.568;2022-12-29T11:56:20;-0.74;87.12
71128;SHT30;59249;59.736;30.568;2022-12-29T11:58:50;-0.65;86.85
71128;SHT30;59249;59.736;30.568;2022-12-29T12:01:26;-0.73;87.29
71128;SHT30;59249;59.736;30.568;2022-12-29T12:04:06;-0.74;87.32
71128;SHT30;59249;59.736;30.568;2022-12-29T12:06:45;-0.81;87.25
71128;SHT30;59249;59.736;30.568;2022-12-29T12:09:22;-0.72;87.10
71128;SHT30;59249;59.736;30.568;2022-12-29T12:11:55;-0.66;87.30
71128;SHT30;59249;59.736;30.568;2022-12-29T12:14:31;-0.79;87.24
